Time;durP1;ratioP1;P1;durP2;ratioP2;P2;SDS_P1;SDS_P2;PMS_P1;PMS_P2;Temp;Humidity;BMP_temperature;BMP_pressure;BME280_temperature;BME280_humidity;BME280_pressure;Samples;Min_cycle;Max_cycle;Signal;HPM_P1;HPM_P2
2024/01/30 00:01:51;;;;;;;;;6.25;6.25;;;;;8.88;70.20;101024.59;5076948;28;8950;-56
2024/01/30 00:04:19;;;;;;;;;12.75;10.00;;;;;8.84;70.11;101029.22;5077117;28;8889;-57
2024/01/30 00:06:46;;;;;;;;;12.00;11.00;;;;;8.81;70.44;101026.72;5083216;28;8810;-59
2024/01/30 00:09:15;;;;;;;;;3.00;3.00;;;;;8.80;70.37;101024.16;5096820;28;8953;-58
2024/01/30 00:11:42;;;;;;;;;6.75;6.50;;;;;8.79;69.98;101025.94;5096956;28;8876;-58
2024/01/30 00:14:10;;;;;;;;;11.00;10.50;;;;;8.78;70.54;101023.34;5096814;28;8822;-58
2024/01/30 00:16:38;;;;;;;;;7.00;6.75;;;;;8.77;70.21;101029.63;5085786;28;8843;-56
2024/01/30 00:19:05;;;;;;;;;9.50;9.25;;;;;8.73;70.26;101031.59;5096859;28;8852;-57
2024/01/30 00:21:33;;;;;;;;;3.50;1.00;;;;;8.73;70.18;101028.94;5096752;28;8830;-58
2024/01/30 00:24:01;;;;;;;;;8.00;7.00;;;;;8.72;70.75;101023.69;5096950;28;8829;-59
2024/01/30 00:26:29;;;;;;;;;7.50;7.00;;;;;8.73;70.65;101026.28;5096758;28;9527;-58
2024/01/30 00:28:56;;;;;;;;;7.00;6.50;;;;;8.73;70.56;101020.97;5095521;28;8814;-57
2024/01/30 00:31:24;;;;;;;;;3.50;3.50;;;;;8.75;70.68;101024.38;5095784;28;8834;-56
2024/01/30 00:33:52;;;;;;;;;10.00;10.00;;;;;8.77;70.75;101016.34;5096621;28;8845;-56
2024/01/30 00:36:20;;;;;;;;;14.50;12.25;;;;;8.77;71.09;101011.91;5096491;28;8848;-58
2024/01/30 00:38:49;;;;;;;;;5.00;5.00;;;;;8.76;71.04;101019.94;5095418;28;8835;-57
2024/01/30 00:41:17;;;;;;;;;9.50;9.00;;;;;8.73;70.66;101018.31;5095046;28;8847;-57
2024/01/30 00:43:44;;;;;;;;;12.00;10.00;;;;;8.71;71.07;101017.53;5094136;28;8852;-58
2024/01/30 00:46:12;;;;;;;;;9.00;7.50;;;;;8.67;70.88;101018.63;5095527;28;8837;-57
2024/01/30 00:48:39;;;;;;;;;9.00;9.00;;;;;8.65;70.93;101027.66;5095463;28;8810;-56
2024/01/30 00:51:07;;;;;;;;;12.25;10.00;;;;;8.59;71.06;101012.88;5095408;28;8850;-58
2024/01/30 00:53:35;;;;;;;;;9.75;9.75;;;;;8.55;71.12;101021.09;5095148;28;8837;-56
2024/01/30 00:56:03;;;;;;;;;13.00;11.75;;;;;8.50;71.18;101018.69;5095425;28;9513;-58
2024/01/30 00:58:31;;;;;;;;;10.00;9.00;;;;;8.46;71.45;101011.88;5096062;28;8929;-58
2024/01/30 01:00:59;;;;;;;;;9.75;9.00;;;;;8.43;71.67;101014.66;5094793;28;8825;-58
2024/01/30 01:03:26;;;;;;;;;8.50;6.25;;;;;8.41;71.31;101003.28;5095656;28;8836;-56
2024/01/30 01:05:54;;;;;;;;;9.50;9.50;;;;;8.41;71.27;101013.91;5095778;28;8838;-58
2024/01/30 01:08:22;;;;;;;;;11.00;10.00;;;;;8.41;71.62;101013.03;5095814;28;8822;-59
2024/01/30 01:10:48;;;;;;;;;9.50;9.25;;;;;8.39;71.65;101005.16;5096093;28;8860;-57
2024/01/30 01:13:16;;;;;;;;;10.50;9.75;;;;;8.41;71.72;100997.97;5095731;28;8818;-57
2024/01/30 01:15:44;;;;;;;;;9.50;9.50;;;;;8.44;71.64;101007.56;5095812;28;8805;-56
2024/01/30 01:18:11;;;;;;;;;9.00;8.75;;;;;8.43;71.78;101006.69;5095978;28;8895;-56
2024/01/30 01:20:39;;;;;;;;;8.50;8.00;;;;;8.43;71.50;101006.69;5095795;28;9513;-57
2024/01/30 01:23:07;;;;;;;;;10.00;9.50;;;;;8.43;71.96;101004.03;5096253;28;9494;-56
2024/01/30 01:25:34;;;;;;;;;6.50;6.00;;;;;8.45;71.26;101009.28;5095785;28;8817;-58
2024/01/30 01:28:03;;;;;;;;;12.00;11.00;;;;;8.46;71.59;101008.34;5095566;28;9476;-56
2024/01/30 01:30:31;;;;;;;;;10.00;10.00;;;;;8.46;71.90;101006.56;5095852;28;8830;-58
2024/01/30 01:33:00;;;;;;;;;12.75;12.25;;;;;8.46;71.49;101006.56;5095744;28;9024;-58
2024/01/30 01:35:29;;;;;;;;;13.50;13.00;;;;;8.43;71.44;101006.69;5095353;28;8976;-58
2024/01/30 01:37:57;;;;;;;;;8.25;6.25;;;;;8.43;71.74;100998.72;5095798;28;8806;-57
2024/01/30 01:40:25;;;;;;;;;10.25;9.25;;;;;8.41;71.74;101008.59;5095943;28;8834;-58
2024/01/30 01:42:53;;;;;;;;;7.50;7.00;;;;;8.39;71.79;101005.16;5095113;28;8830;-56
2024/01/30 01:45:21;;;;;;;;;13.00;11.75;;;;;8.37;71.96;100999.06;5095395;28;8811;-58
2024/01/30 01:47:49;;;;;;;;;8.50;7.00;;;;;8.34;72.05;100999.22;5095414;28;8822;-59
2024/01/30 01:50:18;;;;;;;;;11.00;7.50;;;;;8.30;71.91;101002.97;5095454;28;8833;-58
2024/01/30 01:52:46;;;;;;;;;12.00;10.00;;;;;8.26;71.95;101004.09;5095344;28;8818;-59
2024/01/30 01:55:14;;;;;;;;;9.25;7.00;;;;;8.25;71.99;101002.38;5094868;28;8837;-56
2024/01/30 01:57:41;;;;;;;;;6.25;6.25;;;;;8.20;72.30;100999.09;5095529;28;8817;-58
2024/01/30 02:00:10;;;;;;;;;9.25;8.00;;;;;8.15;72.25;101001.09;5095328;28;8833;-59
2024/01/30 02:02:38;;;;;;;;;7.50;6.75;;;;;8.12;71.94;101000.41;5094857;28;8825;-56
2024/01/30 02:05:06;;;;;;;;;10.40;9.40;;;;;8.11;72.29;100999.56;5095662;28;8806;-57
2024/01/30 02:07:33;;;;;;;;;7.00;7.00;;;;;8.12;72.12;101003.06;5094925;28;8830;-59
2024/01/30 02:10:01;;;;;;;;;12.50;11.50;;;;;8.15;72.32;101001.09;5094311;28;9483;-59
2024/01/30 02:12:30;;;;;;;;;10.00;6.75;;;;;8.18;71.81;101002.75;5095421;28;9573;-59
2024/01/30 02:14:57;;;;;;;;;9.00;9.00;;;;;8.23;72.16;100991.00;5094966;28;8848;-57
2024/01/30 02:17:25;;;;;;;;;10.50;9.25;;;;;8.23;72.14;100991.00;5092862;28;8967;-59
2024/01/30 02:19:53;;;;;;;;;11.00;9.50;;;;;8.23;72.21;100993.66;5095102;28;8848;-59
2024/01/30 02:22:21;;;;;;;;;11.50;8.75;;;;;8.25;72.24;100985.59;5095142;28;8849;-59
2024/01/30 02:24:48;;;;;;;;;13.00;10.50;;;;;8.25;72.01;100986.47;5094723;28;8850;-57
2024/01/30 02:27:17;;;;;;;;;11.75;10.50;;;;;8.25;72.54;100980.28;5093009;28;8919;-56
2024/01/30 02:29:44;;;;;;;;;11.00;10.50;;;;;8.27;72.05;100973.97;5074479;28;8828;-59
2024/01/30 02:32:12;;;;;;;;;8.00;6.25;;;;;8.28;72.21;100974.84;5076862;28;8828;-57
2024/01/30 02:34:40;;;;;;;;;8.50;8.25;;;;;8.30;72.10;100968.47;5078685;28;9651;-59
2024/01/30 02:37:08;;;;;;;;;9.00;7.50;;;;;8.32;71.75;100971.94;5093817;28;8824;-59
2024/01/30 02:39:35;;;;;;;;;9.25;7.50;;;;;8.33;71.81;100970.13;5078877;28;8949;-59
2024/01/30 02:42:03;;;;;;;;;6.75;6.50;;;;;8.34;72.04;100969.19;5078340;28;8859;-59
2024/01/30 02:44:31;;;;;;;;;6.00;6.00;;;;;8.37;71.85;100963.72;5078548;28;8948;-59
2024/01/30 02:46:58;;;;;;;;;12.75;12.00;;;;;8.41;72.18;100963.47;5097499;28;8830;-56
2024/01/30 02:49:26;;;;;;;;;12.00;10.50;;;;;8.42;71.92;100962.53;5098511;28;8821;-59
2024/01/30 02:51:54;;;;;;;;;9.50;8.00;;;;;8.42;71.62;100961.66;5058624;28;8826;-57
2024/01/30 02:54:22;;;;;;;;;10.00;10.00;;;;;8.45;71.73;100956.19;5058228;28;8849;-57
2024/01/30 02:56:49;;;;;;;;;12.50;10.50;;;;;8.46;71.66;100961.44;5075771;28;8817;-58
2024/01/30 02:59:17;;;;;;;;;10.25;9.75;;;;;8.44;71.81;100952.66;5077998;28;8854;-57
2024/01/30 03:01:46;;;;;;;;;8.00;8.00;;;;;8.43;71.80;100948.31;5078439;28;8820;-58
2024/01/30 03:04:14;;;;;;;;;9.00;8.25;;;;;8.41;71.96;100954.63;5078214;28;8934;-58
2024/01/30 03:06:42;;;;;;;;;13.75;9.50;;;;;8.40;71.92;100948.50;5078045;28;8829;-59
2024/01/30 03:09:09;;;;;;;;;3.50;3.50;;;;;8.40;72.05;100948.50;5078691;28;8835;-59
2024/01/30 03:11:37;;;;;;;;;6.00;6.00;;;;;8.43;72.60;100943.00;5078188;28;8818;-57
2024/01/30 03:14:05;;;;;;;;;12.00;10.00;;;;;8.45;72.14;100941.09;5078299;28;8822;-58
2024/01/30 03:16:33;;;;;;;;;8.00;7.00;;;;;8.47;72.04;100938.38;5080319;28;8847;-56
2024/01/30 03:19:02;;;;;;;;;11.00;10.00;;;;;8.45;72.30;100938.47;5098249;28;8863;-58
2024/01/30 03:21:29;;;;;;;;;9.50;9.50;;;;;8.44;72.15;100934.09;5097656;28;8845;-59
2024/01/30 03:23:57;;;;;;;;;8.50;7.50;;;;;8.43;72.28;100928.91;5098018;28;9522;-56
2024/01/30 03:26:25;;;;;;;;;7.50;7.50;;;;;8.43;72.34;100932.38;5097309;28;8821;-58
2024/01/30 03:28:52;;;;;;;;;6.00;5.50;;;;;8.42;72.56;100924.50;5098254;28;8940;-55
2024/01/30 03:31:20;;;;;;;;;4.00;3.25;;;;;8.40;72.41;100927.25;5098312;28;8814;-57
2024/01/30 03:33:48;;;;;;;;;10.00;9.00;;;;;8.40;72.03;100929.91;5097569;28;8830;-57
2024/01/30 03:36:16;;;;;;;;;8.50;7.00;;;;;8.41;72.48;100920.13;5097590;28;8914;-59
2024/01/30 03:38:44;;;;;;;;;7.00;7.00;;;;;8.42;72.09;100914.75;5097377;28;8857;-58
2024/01/30 03:41:11;;;;;;;;;9.00;7.00;;;;;8.46;72.26;100916.31;5097120;28;8851;-58
2024/01/30 03:43:39;;;;;;;;;9.00;8.00;;;;;8.45;72.13;100919.03;5096816;28;8829;-58
2024/01/30 03:46:07;;;;;;;;;6.00;4.00;;;;;8.44;72.26;100920.00;5096411;28;8813;-58
2024/01/30 03:48:34;;;;;;;;;7.00;7.00;;;;;8.44;72.16;100912.88;5097827;28;8942;-57
2024/01/30 03:51:02;;;;;;;;;6.25;4.50;;;;;8.47;72.44;100911.84;5097263;28;8821;-57
2024/01/30 03:53:30;;;;;;;;;10.00;8.00;;;;;8.49;71.91;100905.50;5097317;28;8849;-59
2024/01/30 03:55:58;;;;;;;;;12.25;10.50;;;;;8.52;72.16;100909.81;5096237;28;9506;-59
2024/01/30 03:58:25;;;;;;;;;7.50;7.00;;;;;8.55;72.01;100905.19;5097006;28;8851;-59
2024/01/30 04:00:53;;;;;;;;;8.75;6.25;;;;;8.59;71.95;100898.72;5096456;28;8837;-59
2024/01/30 04:03:21;;;;;;;;;10.00;9.50;;;;;8.64;71.88;100904.66;5097083;28;8855;-58
2024/01/30 04:05:49;;;;;;;;;9.50;7.50;;;;;8.66;71.91;100905.41;5097300;28;8825;-58
2024/01/30 04:08:16;;;;;;;;;4.00;3.00;;;;;8.66;71.87;100908.06;5096627;28;8806;-58
2024/01/30 04:10:44;;;;;;;;;9.50;8.00;;;;;8.70;72.11;100892.81;5097371;28;8818;-56
2024/01/30 04:13:12;;;;;;;;;7.50;7.00;;;;;8.74;72.06;100889.91;5097361;28;8972;-58
2024/01/30 04:15:39;;;;;;;;;12.00;9.50;;;;;8.77;72.00;100889.75;5096773;28;8840;-58
2024/01/30 04:18:07;;;;;;;;;6.25;5.00;;;;;8.79;71.64;100893.16;5096337;28;8845;-58
2024/01/30 04:20:35;;;;;;;;;8.00;6.50;;;;;8.82;71.67;100890.31;5097166;28;8833;-59
2024/01/30 04:23:03;;;;;;;;;7.00;6.00;;;;;8.88;72.03;100894.44;5096615;28;8855;-59
2024/01/30 04:25:31;;;;;;;;;2.50;2.50;;;;;8.90;71.71;100884.59;5097220;28;8817;-58
2024/01/30 04:27:59;;;;;;;;;9.50;9.00;;;;;8.90;72.08;100885.41;5096833;28;8848;-57
2024/01/30 04:30:26;;;;;;;;;7.25;7.25;;;;;8.93;71.65;100887.91;5096852;28;8859;-57
2024/01/30 04:32:54;;;;;;;;;6.00;5.50;;;;;8.92;71.69;100880.91;5097135;28;8855;-59
2024/01/30 04:35:24;;;;;;;;;6.00;6.00;;;;;8.95;71.66;100883.38;5096697;28;8829;-59
2024/01/30 04:37:53;;;;;;;;;3.00;2.00;;;;;8.96;71.80;100890.38;5096020;28;8822;-59
2024/01/30 04:40:20;;;;;;;;;6.50;6.25;;;;;8.97;72.05;100878.81;5096303;28;8955;-59
2024/01/30 04:42:48;;;;;;;;;9.00;8.50;;;;;8.98;71.93;100885.81;5096305;28;8833;-59
2024/01/30 04:45:16;;;;;;;;;9.50;9.50;;;;;8.95;72.31;100883.38;5096499;28;8829;-59
2024/01/30 04:47:44;;;;;;;;;6.00;4.00;;;;;8.92;71.93;100883.56;5096513;28;8825;-58
2024/01/30 04:50:12;;;;;;;;;6.25;6.25;;;;;8.89;72.15;100881.06;5096646;28;8851;-59
2024/01/30 04:52:39;;;;;;;;;9.00;8.75;;;;;8.86;72.17;100875.06;5096456;28;8999;-57
2024/01/30 04:55:07;;;;;;;;;5.50;5.00;;;;;8.84;72.25;100876.97;5095609;28;8837;-59
2024/01/30 04:57:35;;;;;;;;;6.50;6.00;;;;;8.84;72.30;100877.84;5096474;28;8841;-57
2024/01/30 05:00:05;;;;;;;;;6.50;6.50;;;;;8.84;72.30;100874.31;5096437;28;8822;-59
2024/01/30 05:02:33;;;;;;;;;4.00;3.00;;;;;8.84;72.19;100874.31;5095270;28;8845;-58
2024/01/30 05:05:00;;;;;;;;;8.50;7.00;;;;;8.85;72.13;100866.25;5095113;28;8822;-59
2024/01/30 05:07:28;;;;;;;;;6.50;6.50;;;;;8.83;72.23;100876.09;5095502;28;8911;-57
2024/01/30 05:09:56;;;;;;;;;6.00;6.00;;;;;8.83;72.79;100868.13;5095501;28;8866;-58
2024/01/30 05:12:26;;;;;;;;;3.00;3.00;;;;;8.85;72.25;100868.03;5095750;28;8903;-59
2024/01/30 05:14:54;;;;;;;;;6.50;5.50;;;;;8.85;72.60;100876.00;5095091;28;8809;-57
2024/01/30 05:17:22;;;;;;;;;6.00;4.00;;;;;8.84;72.38;100863.69;5094906;28;9558;-59
2024/01/30 05:19:49;;;;;;;;;7.75;7.50;;;;;8.83;72.46;100870.78;5095437;28;8825;-57
2024/01/30 05:22:18;;;;;;;;;6.25;5.50;;;;;8.83;72.65;100864.63;5094618;28;8848;-59
2024/01/30 05:24:46;;;;;;;;;6.75;6.75;;;;;8.84;72.55;100861.91;5083761;28;8836;-59
2024/01/30 05:27:14;;;;;;;;;7.00;6.00;;;;;8.85;72.54;100868.91;5074704;28;8824;-58
2024/01/30 05:29:42;;;;;;;;;2.25;2.00;;;;;8.85;72.58;100868.03;5075307;28;9516;-59
2024/01/30 05:32:10;;;;;;;;;9.25;9.25;;;;;8.83;72.62;100862.81;5075488;28;8824;-58
2024/01/30 05:34:38;;;;;;;;;5.50;5.50;;;;;8.87;72.50;100869.69;5074794;28;8835;-59
2024/01/30 05:37:06;;;;;;;;;7.00;6.75;;;;;8.90;72.45;100872.13;5075530;28;8837;-59
2024/01/30 05:39:35;;;;;;;;;4.00;3.75;;;;;8.90;72.41;100869.47;5075482;28;8839;-59
2024/01/30 05:42:03;;;;;;;;;8.25;6.75;;;;;8.89;72.31;100867.78;5075206;28;8819;-59
2024/01/30 05:44:31;;;;;;;;;6.50;5.50;;;;;8.89;72.19;100859.81;5074855;28;8824;-58
2024/01/30 05:46:58;;;;;;;;;5.50;5.50;;;;;8.91;72.68;100865.91;5075125;28;8945;-59
2024/01/30 05:49:26;;;;;;;;;7.00;6.00;;;;;8.91;72.39;100863.25;5075457;28;8812;-59
2024/01/30 05:51:54;;;;;;;;;9.25;7.50;;;;;8.93;72.83;100864.00;5074797;28;8848;-59
2024/01/30 05:54:22;;;;;;;;;6.75;6.00;;;;;8.94;72.43;100865.72;5074478;28;8835;-58
2024/01/30 05:56:49;;;;;;;;;6.50;6.50;;;;;8.95;72.80;100864.78;5089136;28;8818;-59
2024/01/30 05:59:17;;;;;;;;;6.50;6.00;;;;;8.95;72.65;100862.13;5094181;28;8829;-59
2024/01/30 06:01:45;;;;;;;;;7.00;6.75;;;;;8.96;72.48;100857.66;5094435;28;8837;-59
2024/01/30 06:04:13;;;;;;;;;6.75;6.75;;;;;8.97;72.31;100862.88;5094448;28;8826;-56
2024/01/30 06:06:41;;;;;;;;;9.50;7.00;;;;;8.99;72.49;100865.44;5096863;28;8876;-57
2024/01/30 06:09:09;;;;;;;;;7.00;7.00;;;;;9.02;72.43;100854.63;5097316;28;8802;-59
2024/01/30 06:11:37;;;;;;;;;9.00;9.00;;;;;8.99;72.62;100858.34;5097978;28;8833;-59
2024/01/30 06:14:04;;;;;;;;;6.00;5.00;;;;;8.97;73.08;100862.03;5098599;28;8848;-59
2024/01/30 06:16:32;;;;;;;;;4.50;4.50;;;;;8.95;72.75;100864.78;5098154;28;8872;-58
2024/01/30 06:19:00;;;;;;;;;5.00;4.25;;;;;8.95;73.03;100859.47;5097920;28;8952;-57
2024/01/30 06:21:28;;;;;;;;;6.25;4.50;;;;;8.98;72.64;100871.72;5098653;28;8814;-58
2024/01/30 06:23:55;;;;;;;;;6.75;4.00;;;;;9.04;72.81;100869.53;5097995;28;8826;-58
2024/01/30 06:26:23;;;;;;;;;1.00;1.00;;;;;9.10;72.44;100871.84;5097729;28;8822;-59
2024/01/30 06:28:51;;;;;;;;;7.00;6.25;;;;;9.18;72.25;100866.94;5097205;28;8832;-57
2024/01/30 06:31:19;;;;;;;;;5.50;5.50;;;;;9.23;71.90;100867.53;5095110;28;8940;-59
2024/01/30 06:33:47;;;;;;;;;9.00;6.75;;;;;9.27;72.47;100855.75;5096385;28;8837;-57
2024/01/30 06:36:15;;;;;;;;;6.75;6.00;;;;;9.26;72.23;100858.53;5096617;28;9733;-60
2024/01/30 06:38:42;;;;;;;;;4.00;3.50;;;;;9.24;71.90;100853.28;5096066;28;8829;-58
2024/01/30 06:41:10;;;;;;;;;7.00;7.00;;;;;9.21;72.51;100850.81;5096315;28;8848;-58
2024/01/30 06:43:38;;;;;;;;;4.00;4.00;;;;;9.22;72.40;100860.50;5096037;28;8840;-59
2024/01/30 06:46:06;;;;;;;;;6.00;6.00;;;;;9.24;72.34;100863.91;5095997;28;8836;-59
2024/01/30 06:48:34;;;;;;;;;6.67;6.00;;;;;9.26;72.16;100864.69;5095279;28;8952;-59
2024/01/30 06:51:02;;;;;;;;;4.00;4.00;;;;;9.24;72.21;100868.38;5095532;28;8837;-59
2024/01/30 06:53:29;;;;;;;;;3.00;3.00;;;;;9.21;72.15;100873.88;5096237;28;8826;-59
2024/01/30 06:55:57;;;;;;;;;8.00;8.00;;;;;9.18;72.29;100866.94;5096389;28;8841;-57
2024/01/30 06:58:25;;;;;;;;;7.00;7.00;;;;;9.16;72.31;100865.31;5095567;28;8960;-59
2024/01/30 07:00:53;;;;;;;;;5.75;4.50;;;;;9.11;72.39;100870.91;5096705;28;8830;-58
2024/01/30 07:03:21;;;;;;;;;9.50;8.00;;;;;9.07;72.24;100865.84;5095565;28;8864;-58
2024/01/30 07:05:49;;;;;;;;;9.00;7.50;;;;;9.02;72.46;100871.44;5096218;28;8852;-58
2024/01/30 07:08:17;;;;;;;;;6.50;6.50;;;;;8.98;72.54;100861.91;5096388;28;8848;-57
2024/01/30 07:10:45;;;;;;;;;1.50;1.00;;;;;8.97;72.84;100862.88;5095598;28;8837;-59
2024/01/30 07:13:16;;;;;;;;;2.00;2.00;;;;;9.00;72.72;100860.06;5096562;28;8844;-59
2024/01/30 07:15:44;;;;;;;;;3.00;3.00;;;;;9.04;72.68;100861.56;5096449;28;8842;-59
2024/01/30 07:18:13;;;;;;;;;6.50;5.00;;;;;9.10;72.80;100855.03;5088563;28;8815;-57
2024/01/30 07:20:45;;;;;;;;;4.00;3.75;;;;;9.13;72.65;100855.72;5076232;28;8816;-57
2024/01/30 07:23:15;;;;;;;;;4.00;4.00;;;;;9.20;72.90;100856.22;5076046;28;8832;-58
2024/01/30 07:25:43;;;;;;;;;5.75;5.00;;;;;9.29;72.14;100856.53;5076604;28;8824;-57
2024/01/30 07:28:13;;;;;;;;;4.00;4.00;;;;;9.38;72.38;100850.66;5076982;28;8850;-58
2024/01/30 07:30:41;;;;;;;;;6.00;6.00;;;;;9.49;72.37;100858.00;5076218;28;8828;-57
2024/01/30 07:33:09;;;;;;;;;5.50;5.00;;;;;9.56;71.97;100857.50;5076002;28;8836;-58
2024/01/30 07:35:37;;;;;;;;;7.00;6.00;;;;;9.62;71.62;100853.63;5076444;28;8824;-58
2024/01/30 07:38:06;;;;;;;;;6.00;6.00;;;;;9.68;72.08;100853.25;5075987;28;8839;-58
2024/01/30 07:40:34;;;;;;;;;5.00;5.00;;;;;9.73;71.93;100854.66;5076408;28;8851;-59
2024/01/30 07:43:03;;;;;;;;;6.25;6.25;;;;;9.78;71.46;100854.41;5076010;28;9494;-58
2024/01/30 07:45:32;;;;;;;;;7.00;6.25;;;;;9.84;71.46;100865.53;5075600;28;8844;-58
2024/01/30 07:48:00;;;;;;;;;4.00;4.00;;;;;9.90;71.73;100865.16;5076855;28;9002;-59
2024/01/30 07:50:28;;;;;;;;;3.75;3.75;;;;;9.95;71.23;100872.84;5075183;28;8860;-59
2024/01/30 07:52:56;;;;;;;;;7.00;6.00;;;;;10.01;71.41;100878.63;5075480;28;8970;-58
2024/01/30 07:55:27;;;;;;;;;6.25;6.25;;;;;10.03;71.28;100878.56;5075962;28;8828;-59
2024/01/30 07:57:55;;;;;;;;;10.00;7.00;;;;;10.05;71.07;100877.53;5075462;28;8832;-58
2024/01/30 08:00:23;;;;;;;;;5.00;5.00;;;;;10.07;70.97;100883.59;5075444;28;8950;-58
2024/01/30 08:02:54;;;;;;;;;7.50;6.75;;;;;10.08;71.29;100890.63;5075418;28;8840;-59
2024/01/30 08:05:22;;;;;;;;;6.25;6.25;;;;;10.10;71.15;100887.88;5074935;28;8812;-59
2024/01/30 08:07:50;;;;;;;;;4.25;3.25;;;;;10.11;70.86;100884.25;5073142;28;8852;-57
2024/01/30 08:10:18;;;;;;;;;6.50;6.50;;;;;10.13;70.71;100883.22;5072848;28;8854;-58
2024/01/30 08:12:46;;;;;;;;;9.00;7.00;;;;;10.13;70.97;100887.69;5072803;28;8843;-59
2024/01/30 08:15:14;;;;;;;;;9.50;8.50;;;;;10.13;70.91;100880.56;5072991;28;8833;-59
2024/01/30 08:17:42;;;;;;;;;6.25;6.00;;;;;10.13;71.21;100895.66;5084234;28;9001;-59
2024/01/30 08:20:11;;;;;;;;;6.00;5.50;;;;;10.13;71.46;100890.34;5093717;28;8858;-59
2024/01/30 08:22:40;;;;;;;;;9.00;6.75;;;;;10.14;71.27;100892.03;5092631;28;8833;-59
2024/01/30 08:25:09;;;;;;;;;7.00;7.00;;;;;10.15;71.36;100889.28;5092842;28;8852;-58
2024/01/30 08:27:38;;;;;;;;;3.25;3.00;;;;;10.23;70.83;100889.66;5092953;28;8822;-58
2024/01/30 08:30:06;;;;;;;;;6.25;4.00;;;;;10.29;71.08;100891.94;5093931;28;8833;-58
2024/01/30 08:32:34;;;;;;;;;6.00;5.00;;;;;10.33;70.80;100890.78;5094790;28;8915;-57
2024/01/30 08:35:03;;;;;;;;;4.00;4.00;;;;;10.40;70.56;100891.28;5094256;28;8830;-58
2024/01/30 08:37:32;;;;;;;;;1.00;1.00;;;;;10.45;70.77;100883.81;5094462;28;8900;-58
2024/01/30 08:40:00;;;;;;;;;6.00;6.00;;;;;10.50;70.68;100882.59;5094390;28;8833;-59
2024/01/30 08:42:27;;;;;;;;;6.00;4.00;;;;;10.56;70.55;100884.00;5094456;28;8847;-57
2024/01/30 08:44:56;;;;;;;;;3.50;3.25;;;;;10.63;70.52;100877.34;5093783;28;8821;-57
2024/01/30 08:47:23;;;;;;;;;6.00;5.00;;;;;10.69;70.42;100884.94;5093839;28;8858;-59
2024/01/30 08:49:51;;;;;;;;;5.50;5.00;;;;;10.73;70.35;100879.28;5094124;28;9507;-58
2024/01/30 08:52:19;;;;;;;;;6.75;6.75;;;;;10.76;70.18;100884.41;5094164;28;8814;-57
2024/01/30 08:54:47;;;;;;;;;8.00;6.50;;;;;10.80;69.91;100874.41;5094375;28;8830;-59
2024/01/30 08:57:15;;;;;;;;;3.00;3.00;;;;;10.84;70.31;100882.09;5094852;28;8838;-59
2024/01/30 08:59:46;;;;;;;;;6.00;6.00;;;;;10.89;70.06;100876.47;5094713;28;8885;-56
2024/01/30 09:02:16;;;;;;;;;7.00;6.75;;;;;10.93;69.89;100878.81;5095171;28;8838;-57
2024/01/30 09:04:44;;;;;;;;;8.00;6.25;;;;;10.97;69.92;100880.34;5095453;28;9503;-59
2024/01/30 09:07:13;;;;;;;;;5.00;4.50;;;;;11.01;69.65;100871.16;5094952;28;8822;-58
2024/01/30 09:09:41;;;;;;;;;5.50;5.00;;;;;11.06;69.78;100878.88;5094518;28;8850;-59
2024/01/30 09:12:11;;;;;;;;;5.50;5.50;;;;;11.09;70.21;100879.50;5094791;28;8834;-59
2024/01/30 09:14:40;;;;;;;;;7.00;5.00;;;;;11.14;69.81;100884.56;5095021;28;8826;-57
2024/01/30 09:17:08;;;;;;;;;6.00;5.50;;;;;11.18;69.73;100884.25;5094646;28;8864;-57
2024/01/30 09:19:36;;;;;;;;;6.00;4.00;;;;;11.22;69.71;100877.75;5094315;28;8899;-58
2024/01/30 09:22:04;;;;;;;;;6.00;6.00;;;;;11.27;69.22;100888.97;5093724;28;8826;-58
2024/01/30 09:24:32;;;;;;;;;5.50;4.00;;;;;11.30;69.60;100891.41;5093165;28;8968;-56
2024/01/30 09:27:00;;;;;;;;;6.00;6.00;;;;;11.34;69.18;100895.59;5093441;28;8873;-57
2024/01/30 09:29:28;;;;;;;;;7.00;7.00;;;;;11.37;69.29;100892.69;5093136;28;8838;-59
2024/01/30 09:31:56;;;;;;;;;8.00;7.00;;;;;11.41;69.76;100898.69;5093423;28;8844;-58
2024/01/30 09:34:24;;;;;;;;;6.00;6.00;;;;;11.44;69.48;100899.34;5092773;28;8868;-59
2024/01/30 09:36:52;;;;;;;;;6.00;5.00;;;;;11.49;69.45;100902.56;5092026;28;8834;-57
2024/01/30 09:39:20;;;;;;;;;6.50;6.50;;;;;11.55;69.21;100902.16;5092171;28;8872;-59
2024/01/30 09:41:48;;;;;;;;;3.00;3.00;;;;;11.62;68.78;100910.59;5099128;28;8946;-58
2024/01/30 09:44:16;;;;;;;;;4.50;4.50;;;;;11.69;68.78;100912.72;5100344;28;8926;-60
2024/01/30 09:46:44;;;;;;;;;6.00;6.00;;;;;11.79;68.63;100912.97;5099683;28;8909;-59
2024/01/30 09:49:12;;;;;;;;;6.00;6.00;;;;;11.91;68.96;100918.28;5100470;28;8860;-59
2024/01/30 09:51:39;;;;;;;;;6.00;5.50;;;;;12.04;68.63;100916.50;5099798;28;9522;-60
2024/01/30 09:54:07;;;;;;;;;7.00;6.00;;;;;12.16;68.22;100920.97;5100856;28;8836;-57
2024/01/30 09:56:35;;;;;;;;;4.00;3.25;;;;;12.26;68.13;100912.22;5100494;28;8911;-60
2024/01/30 09:59:03;;;;;;;;;5.50;4.00;;;;;12.36;67.86;100913.25;5099986;28;9503;-59
2024/01/30 10:01:31;;;;;;;;;5.50;5.00;;;;;12.46;67.74;100914.28;5100060;28;8834;-59
2024/01/30 10:03:59;;;;;;;;;6.50;6.50;;;;;12.56;67.44;100919.84;5101127;28;8968;-59
2024/01/30 10:06:27;;;;;;;;;4.00;4.00;;;;;12.66;67.76;100915.53;5101935;28;8906;-60
2024/01/30 10:08:55;;;;;;;;;4.00;4.00;;;;;12.77;67.04;100918.28;5101662;28;8810;-58
2024/01/30 10:11:23;;;;;;;;;6.00;5.50;;;;;12.83;66.97;100916.00;5100720;28;8834;-57
2024/01/30 10:13:52;;;;;;;;;4.50;4.50;;;;;12.90;66.95;100903.91;5101304;28;8834;-58
2024/01/30 10:16:20;;;;;;;;;6.00;6.00;;;;;12.97;66.66;100915.00;5101158;28;8818;-59
2024/01/30 10:18:48;;;;;;;;;7.00;6.00;;;;;13.08;66.98;100899.88;5101602;28;8912;-58
2024/01/30 10:21:16;;;;;;;;;5.50;5.25;;;;;13.21;66.70;100899.84;5099873;28;8826;-57
2024/01/30 10:23:44;;;;;;;;;4.00;4.00;;;;;13.36;66.83;100890.66;5100360;28;8829;-57
2024/01/30 10:26:12;;;;;;;;;3.25;3.00;;;;;13.47;66.32;100893.34;5100102;28;8829;-59
2024/01/30 10:28:42;;;;;;;;;6.00;5.00;;;;;13.50;66.55;100893.97;5100058;28;8841;-58
2024/01/30 10:31:09;;;;;;;;;4.50;4.00;;;;;13.47;66.40;100893.34;5099754;28;8822;-60
2024/01/30 10:33:37;;;;;;;;;6.00;6.00;;;;;13.43;66.51;100894.56;5099813;28;8891;-59
2024/01/30 10:36:05;;;;;;;;;6.25;6.25;;;;;13.39;66.88;100896.63;5099855;28;8964;-58
2024/01/30 10:38:33;;;;;;;;;4.00;2.00;;;;;13.34;66.64;100893.44;5099805;28;8838;-59
2024/01/30 10:41:01;;;;;;;;;6.25;5.00;;;;;13.35;66.50;100894.31;5099826;28;9554;-58
2024/01/30 10:43:29;;;;;;;;;7.00;6.25;;;;;13.37;67.00;100889.69;5099667;28;8826;-59
2024/01/30 10:45:57;;;;;;;;;6.50;6.00;;;;;13.44;67.03;100888.25;5098965;28;8842;-59
2024/01/30 10:48:25;;;;;;;;;6.00;5.00;;;;;13.52;66.66;100896.53;5100328;28;8826;-58
2024/01/30 10:50:54;;;;;;;;;3.00;3.00;;;;;13.63;66.24;100894.75;5100561;28;8855;-59
2024/01/30 10:53:27;;;;;;;;;2.50;0.50;;;;;13.81;65.90;100892.47;5096223;28;8822;-60
2024/01/30 10:55:58;;;;;;;;;5.00;5.00;;;;;14.06;65.16;100893.13;5097764;28;8818;-57
2024/01/30 10:58:26;;;;;;;;;7.00;6.25;;;;;14.13;64.65;100894.31;5097734;28;8887;-56
2024/01/30 11:00:54;;;;;;;;;6.25;5.50;;;;;14.10;65.31;100893.69;5096778;28;8918;-57
2024/01/30 11:03:23;;;;;;;;;7.00;7.00;;;;;14.06;65.82;100892.25;5096576;28;8948;-55
2024/01/30 11:05:51;;;;;;;;;9.25;7.00;;;;;14.04;66.03;100894.22;5096535;28;8857;-56
2024/01/30 11:08:19;;;;;;;;;11.50;11.00;;;;;14.02;66.22;100890.78;5095524;28;8818;-55
2024/01/30 11:10:47;;;;;;;;;5.75;5.75;;;;;14.00;66.07;100885.56;5096463;28;9555;-56
2024/01/30 11:13:15;;;;;;;;;6.50;6.50;;;;;14.02;65.73;100885.41;5095514;28;8834;-56
2024/01/30 11:15:43;;;;;;;;;6.00;6.00;;;;;14.03;66.10;100900.53;5096147;28;8822;-56
2024/01/30 11:18:11;;;;;;;;;7.00;7.00;;;;;14.04;65.68;100896.88;5096015;28;8976;-57
2024/01/30 11:20:45;;;;;;;;;6.00;6.00;;;;;14.07;66.05;100894.81;5096212;28;8931;-57
2024/01/30 11:23:13;;;;;;;;;6.25;6.25;;;;;14.11;65.28;100901.63;5096079;28;8848;-57
2024/01/30 11:25:41;;;;;;;;;6.50;6.50;;;;;14.17;65.47;100890.44;5095075;28;8829;-57
2024/01/30 11:28:09;;;;;;;;;3.25;2.75;;;;;14.31;65.12;100889.34;5095601;28;9488;-57
2024/01/30 11:30:36;;;;;;;;;6.50;6.00;;;;;14.88;64.33;100890.03;5095217;28;8841;-56
2024/01/30 11:33:05;;;;;;;;;5.50;4.50;;;;;15.21;63.46;100889.91;5095478;28;8834;-56
2024/01/30 11:35:34;;;;;;;;;7.25;7.25;;;;;15.14;63.45;100889.56;5095601;28;9522;-59
2024/01/30 11:38:02;;;;;;;;;5.75;5.50;;;;;15.08;63.38;100895.44;5095825;28;8842;-56
2024/01/30 11:40:30;;;;;;;;;7.75;6.25;;;;;15.36;63.55;100889.50;5096409;28;9508;-56